sensor_id;sensor_type;location;lat;lon;timestamp;pressure;altitude;pressure_sealevel;temperature;humidity
57000;BME280;42891;50.006;21.964;2024-02-23T00:02:35;51120.91;;;-146.02;69.14
57000;BME280;42891;50.006;21.964;2024-02-23T00:06:35;51108.88;;;-146.02;69.20
57000;BME280;42891;50.006;21.964;2024-02-23T00:10:36;51132.94;;;-146.02;69.11
57000;BME280;42891;50.006;21.964;2024-02-23T00:14:36;51124.91;;;-146.02;69.30
57000;BME280;42891;50.006;21.964;2024-02-23T00:18:37;51140.94;;;-146.02;69.02
57000;BME280;42891;50.006;21.964;2024-02-23T00:22:38;51118.91;;;-146.02;69.03
57000;BME280;42891;50.006;21.964;2024-02-23T00:26:38;51126.94;;;-146.02;68.86
57000;BME280;42891;50.006;21.964;2024-02-23T00:30:38;51128.94;;;-146.02;68.76
57000;BME280;42891;50.006;21.964;2024-02-23T00:34:39;51096.88;;;-146.02;68.73
57000;BME280;42891;50.006;21.964;2024-02-23T00:38:39;51110.91;;;-146.02;68.45
57000;BME280;42891;50.006;21.964;2024-02-23T00:42:40;51138.94;;;-146.02;68.20
57000;BME280;42891;50.006;21.964;2024-02-23T00:46:40;51104.88;;;-146.02;68.08
57000;BME280;42891;50.006;21.964;2024-02-23T00:50:41;51118.91;;;-146.02;67.71
57000;BME280;42891;50.006;21.964;2024-02-23T00:54:41;51106.88;;;-146.02;67.66
57000;BME280;42891;50.006;21.964;2024-02-23T00:58:41;51146.97;;;-146.02;67.27
57000;BME280;42891;50.006;21.964;2024-02-23T01:02:41;51144.97;;;-146.02;67.29
57000;BME280;42891;50.006;21.964;2024-02-23T01:06:42;51110.91;;;-146.02;67.03
57000;BME280;42891;50.006;21.964;2024-02-23T01:10:42;51148.97;;;-146.02;67.10
57000;BME280;42891;50.006;21.964;2024-02-23T01:14:42;51092.84;;;-146.02;66.61
57000;BME280;42891;50.006;21.964;2024-02-23T01:18:43;51124.91;;;-146.02;66.36
57000;BME280;42891;50.006;21.964;2024-02-23T01:22:43;51140.94;;;-146.02;66.23
57000;BME280;42891;50.006;21.964;2024-02-23T01:26:44;51104.88;;;-146.02;66.32
57000;BME280;42891;50.006;21.964;2024-02-23T01:30:44;51098.88;;;-146.02;65.90
57000;BME280;42891;50.006;21.964;2024-02-23T01:34:44;51116.91;;;-146.02;66.27
57000;BME280;42891;50.006;21.964;2024-02-23T01:38:44;51098.88;;;-146.02;66.39
57000;BME280;42891;50.006;21.964;2024-02-23T01:42:45;51098.88;;;-146.02;66.91
57000;BME280;42891;50.006;21.964;2024-02-23T01:46:45;51134.94;;;-146.02;66.75
57000;BME280;42891;50.006;21.964;2024-02-23T01:50:45;51142.97;;;-146.02;66.69
57000;BME280;42891;50.006;21.964;2024-02-23T01:54:46;51128.94;;;-146.02;66.31
57000;BME280;42891;50.006;21.964;2024-02-23T01:58:47;51130.94;;;-146.02;66.33
57000;BME280;42891;50.006;21.964;2024-02-23T02:02:48;51110.91;;;-146.02;66.05
57000;BME280;42891;50.006;21.964;2024-02-23T02:06:48;51118.91;;;-146.02;66.03
57000;BME280;42891;50.006;21.964;2024-02-23T02:10:49;51100.88;;;-146.02;66.03
57000;BME280;42891;50.006;21.964;2024-02-23T02:14:49;51132.94;;;-146.02;65.92
57000;BME280;42891;50.006;21.964;2024-02-23T02:18:50;51122.91;;;-146.02;65.71
57000;BME280;42891;50.006;21.964;2024-02-23T02:22:50;51112.91;;;-146.02;65.43
57000;BME280;42891;50.006;21.964;2024-02-23T02:26:51;51140.94;;;-146.02;63.91
57000;BME280;42891;50.006;21.964;2024-02-23T02:30:52;51082.84;;;-146.02;63.08
57000;BME280;42891;50.006;21.964;2024-02-23T02:34:52;51161.00;;;-146.02;62.92
57000;BME280;42891;50.006;21.964;2024-02-23T02:38:53;51104.88;;;-146.02;62.45
57000;BME280;42891;50.006;21.964;2024-02-23T02:42:53;51112.91;;;-146.02;62.12
57000;BME280;42891;50.006;21.964;2024-02-23T02:46:53;51110.91;;;-146.02;61.86
57000;BME280;42891;50.006;21.964;2024-02-23T02:50:53;51102.88;;;-146.02;61.29
57000;BME280;42891;50.006;21.964;2024-02-23T02:54:54;51110.91;;;-146.02;61.19
57000;BME280;42891;50.006;21.964;2024-02-23T02:58:55;51092.84;;;-146.02;60.88
57000;BME280;42891;50.006;21.964;2024-02-23T03:02:56;51102.88;;;-146.02;60.53
57000;BME280;42891;50.006;21.964;2024-02-23T03:06:56;51118.91;;;-146.02;60.82
57000;BME280;42891;50.006;21.964;2024-02-23T03:10:56;51098.88;;;-146.02;60.35
57000;BME280;42891;50.006;21.964;2024-02-23T03:14:57;51068.81;;;-146.02;60.19
57000;BME280;42891;50.006;21.964;2024-02-23T03:18:57;51100.88;;;-146.02;60.10
57000;BME280;42891;50.006;21.964;2024-02-23T03:22:58;51108.88;;;-146.02;59.92
57000;BME280;42891;50.006;21.964;2024-02-23T03:26:58;51098.88;;;-146.02;59.99
57000;BME280;42891;50.006;21.964;2024-02-23T03:31:00;51110.91;;;-146.02;60.05
57000;BME280;42891;50.006;21.964;2024-02-23T03:35:00;51088.84;;;-146.02;60.10
57000;BME280;42891;50.006;21.964;2024-02-23T03:39:00;51082.84;;;-146.02;60.05
57000;BME280;42891;50.006;21.964;2024-02-23T03:43:01;51106.88;;;-146.02;60.14
57000;BME280;42891;50.006;21.964;2024-02-23T03:47:02;51124.91;;;-146.02;60.04
57000;BME280;42891;50.006;21.964;2024-02-23T03:51:04;51100.88;;;-146.02;60.21
57000;BME280;42891;50.006;21.964;2024-02-23T03:55:05;51112.91;;;-146.02;60.29
57000;BME280;42891;50.006;21.964;2024-02-23T03:59:06;51142.97;;;-146.02;60.37
57000;BME280;42891;50.006;21.964;2024-02-23T04:03:09;51100.88;;;-146.02;60.18
57000;BME280;42891;50.006;21.964;2024-02-23T04:07:09;51086.84;;;-146.02;60.52
57000;BME280;42891;50.006;21.964;2024-02-23T04:11:12;51110.91;;;-146.02;61.31
57000;BME280;42891;50.006;21.964;2024-02-23T04:15:13;51148.97;;;-146.02;61.83
57000;BME280;42891;50.006;21.964;2024-02-23T04:19:13;51106.88;;;-146.02;62.76
57000;BME280;42891;50.006;21.964;2024-02-23T04:23:14;51116.91;;;-146.02;63.46
57000;BME280;42891;50.006;21.964;2024-02-23T04:27:14;51150.97;;;-146.02;63.30
57000;BME280;42891;50.006;21.964;2024-02-23T04:31:15;51078.84;;;-146.02;63.62
57000;BME280;42891;50.006;21.964;2024-02-23T04:35:15;51114.91;;;-146.02;63.70
57000;BME280;42891;50.006;21.964;2024-02-23T04:39:15;51114.91;;;-146.02;64.05
57000;BME280;42891;50.006;21.964;2024-02-23T04:43:16;51116.91;;;-146.02;64.52
57000;BME280;42891;50.006;21.964;2024-02-23T04:47:16;51124.91;;;-146.02;64.34
57000;BME280;42891;50.006;21.964;2024-02-23T04:51:16;51122.91;;;-146.02;64.36
57000;BME280;42891;50.006;21.964;2024-02-23T04:55:16;51134.94;;;-146.02;64.26
57000;BME280;42891;50.006;21.964;2024-02-23T04:59:17;51100.88;;;-146.02;64.97
57000;BME280;42891;50.006;21.964;2024-02-23T05:03:17;51124.91;;;-146.02;64.63
57000;BME280;42891;50.006;21.964;2024-02-23T05:07:17;51088.84;;;-146.02;65.27
57000;BME280;42891;50.006;21.964;2024-02-23T05:11:18;51126.94;;;-146.02;65.54
57000;BME280;42891;50.006;21.964;2024-02-23T05:15:18;51124.91;;;-146.02;65.46
57000;BME280;42891;50.006;21.964;2024-02-23T05:19:18;51104.88;;;-146.02;65.82
57000;BME280;42891;50.006;21.964;2024-02-23T05:23:19;51110.91;;;-146.02;66.14
57000;BME280;42891;50.006;21.964;2024-02-23T05:27:19;51128.94;;;-146.02;66.08
57000;BME280;42891;50.006;21.964;2024-02-23T05:31:19;51116.91;;;-146.02;66.35
57000;BME280;42891;50.006;21.964;2024-02-23T05:35:20;51102.88;;;-146.02;65.92
57000;BME280;42891;50.006;21.964;2024-02-23T05:39:20;51106.88;;;-146.02;66.10
57000;BME280;42891;50.006;21.964;2024-02-23T05:43:20;51108.88;;;-146.02;66.39
57000;BME280;42891;50.006;21.964;2024-02-23T05:47:20;51108.88;;;-146.02;66.43
57000;BME280;42891;50.006;21.964;2024-02-23T05:51:21;51138.94;;;-146.02;66.04
57000;BME280;42891;50.006;21.964;2024-02-23T05:55:21;51112.91;;;-146.02;66.24
57000;BME280;42891;50.006;21.964;2024-02-23T05:59:22;51128.94;;;-146.02;66.19
57000;BME280;42891;50.006;21.964;2024-02-23T06:03:22;51118.91;;;-146.02;66.58
57000;BME280;42891;50.006;21.964;2024-02-23T06:07:22;51104.88;;;-146.02;66.82
57000;BME280;42891;50.006;21.964;2024-02-23T06:11:29;51092.84;;;-146.02;67.19
57000;BME280;42891;50.006;21.964;2024-02-23T06:15:29;51106.88;;;-146.02;67.37
57000;BME280;42891;50.006;21.964;2024-02-23T06:19:31;51116.91;;;-146.02;67.38
57000;BME280;42891;50.006;21.964;2024-02-23T06:23:31;51096.88;;;-146.02;67.77
57000;BME280;42891;50.006;21.964;2024-02-23T06:27:31;51120.91;;;-146.02;68.02
57000;BME280;42891;50.006;21.964;2024-02-23T06:31:31;51088.84;;;-146.02;68.86
57000;BME280;42891;50.006;21.964;2024-02-23T06:35:34;51136.94;;;-146.02;69.68
57000;BME280;42891;50.006;21.964;2024-02-23T06:39:34;51136.94;;;-146.02;70.56
57000;BME280;42891;50.006;21.964;2024-02-23T06:43:35;51106.88;;;-146.02;71.43
57000;BME280;42891;50.006;21.964;2024-02-23T06:47:35;51132.94;;;-146.02;71.85
57000;BME280;42891;50.006;21.964;2024-02-23T06:51:36;51148.97;;;-146.02;72.93
57000;BME280;42891;50.006;21.964;2024-02-23T06:55:36;51130.94;;;-146.02;73.92
57000;BME280;42891;50.006;21.964;2024-02-23T06:59:36;51118.91;;;-146.02;74.50
57000;BME280;42891;50.006;21.964;2024-02-23T07:03:37;51106.88;;;-146.02;75.47
57000;BME280;42891;50.006;21.964;2024-02-23T07:07:37;51118.91;;;-146.02;75.40
57000;BME280;42891;50.006;21.964;2024-02-23T07:11:40;51126.94;;;-146.02;75.11
57000;BME280;42891;50.006;21.964;2024-02-23T07:15:43;51128.94;;;-146.02;74.99
57000;BME280;42891;50.006;21.964;2024-02-23T07:19:43;51120.91;;;-146.02;75.70
57000;BME280;42891;50.006;21.964;2024-02-23T07:23:44;51114.91;;;-146.02;76.29
57000;BME280;42891;50.006;21.964;2024-02-23T07:27:44;51142.97;;;-146.02;76.46
57000;BME280;42891;50.006;21.964;2024-02-23T07:31:45;51116.91;;;-146.02;77.01
57000;BME280;42891;50.006;21.964;2024-02-23T07:35:45;51132.94;;;-146.02;78.54
57000;BME280;42891;50.006;21.964;2024-02-23T07:39:45;51154.97;;;-146.02;78.97
57000;BME280;42891;50.006;21.964;2024-02-23T07:43:45;51120.91;;;-146.02;79.29
57000;BME280;42891;50.006;21.964;2024-02-23T07:47:46;51096.88;;;-146.02;80.32
57000;BME280;42891;50.006;21.964;2024-02-23T07:51:46;51132.94;;;-146.02;81.59
57000;BME280;42891;50.006;21.964;2024-02-23T07:55:46;51156.97;;;-146.02;82.30
57000;BME280;42891;50.006;21.964;2024-02-23T07:59:47;51124.91;;;-146.02;83.27
57000;BME280;42891;50.006;21.964;2024-02-23T08:03:48;51150.97;;;-146.02;84.19
57000;BME280;42891;50.006;21.964;2024-02-23T08:07:49;51134.94;;;-146.02;85.34
57000;BME280;42891;50.006;21.964;2024-02-23T08:11:49;51124.91;;;-146.02;85.00
57000;BME280;42891;50.006;21.964;2024-02-23T08:15:49;51098.88;;;-146.02;86.07
57000;BME280;42891;50.006;21.964;2024-02-23T08:19:50;51120.91;;;-146.02;86.13
57000;BME280;42891;50.006;21.964;2024-02-23T08:23:50;51142.97;;;-146.02;85.86
57000;BME280;42891;50.006;21.964;2024-02-23T08:27:51;51110.91;;;-146.02;86.24
57000;BME280;42891;50.006;21.964;2024-02-23T08:31:51;51132.94;;;-146.02;86.52
57000;BME280;42891;50.006;21.964;2024-02-23T08:35:51;51110.91;;;-146.02;86.78
57000;BME280;42891;50.006;21.964;2024-02-23T08:39:52;51165.00;;;-146.02;87.15
57000;BME280;42891;50.006;21.964;2024-02-23T08:43:53;51140.94;;;-146.02;86.46
57000;BME280;42891;50.006;21.964;2024-02-23T08:47:54;51138.94;;;-146.02;86.86
57000;BME280;42891;50.006;21.964;2024-02-23T08:51:55;51148.97;;;-146.02;86.64
57000;BME280;42891;50.006;21.964;2024-02-23T08:55:56;51126.94;;;-146.02;86.81
57000;BME280;42891;50.006;21.964;2024-02-23T08:59:57;51126.94;;;-146.02;87.13
57000;BME280;42891;50.006;21.964;2024-02-23T09:03:58;51104.88;;;-146.02;87.00
57000;BME280;42891;50.006;21.964;2024-02-23T09:07:58;51140.94;;;-146.02;86.70
57000;BME280;42891;50.006;21.964;2024-02-23T09:11:58;51126.94;;;-146.02;86.25
57000;BME280;42891;50.006;21.964;2024-02-23T09:15:59;51150.97;;;-146.02;87.18
57000;BME280;42891;50.006;21.964;2024-02-23T09:19:59;51126.94;;;-146.02;86.52
57000;BME280;42891;50.006;21.964;2024-02-23T09:24:00;51112.91;;;-146.02;86.75
57000;BME280;42891;50.006;21.964;2024-02-23T09:28:00;51100.88;;;-146.02;86.46
57000;BME280;42891;50.006;21.964;2024-02-23T09:32:00;51144.97;;;-146.02;85.11
57000;BME280;42891;50.006;21.964;2024-02-23T09:36:01;51118.91;;;-146.02;84.15
57000;BME280;42891;50.006;21.964;2024-02-23T09:40:01;51163.00;;;-146.02;83.85
57000;BME280;42891;50.006;21.964;2024-02-23T09:44:02;51134.94;;;-146.02;82.44
57000;BME280;42891;50.006;21.964;2024-02-23T09:48:03;51158.97;;;-146.02;82.04
57000;BME280;42891;50.006;21.964;2024-02-23T09:52:07;51142.97;;;-146.02;81.40
57000;BME280;42891;50.006;21.964;2024-02-23T09:56:09;51132.94;;;-146.02;80.35
57000;BME280;42891;50.006;21.964;2024-02-23T10:00:10;51171.00;;;-146.02;80.01
57000;BME280;42891;50.006;21.964;2024-02-23T10:04:11;51092.84;;;-146.02;79.65
57000;BME280;42891;50.006;21.964;2024-02-23T10:08:11;51128.94;;;-146.02;77.87
57000;BME280;42891;50.006;21.964;2024-02-23T10:12:13;51128.94;;;-146.02;77.54
57000;BME280;42891;50.006;21.964;2024-02-23T10:16:16;51128.94;;;-146.02;77.66
57000;BME280;42891;50.006;21.964;2024-02-23T10:20:16;51142.97;;;-146.02;76.18
57000;BME280;42891;50.006;21.964;2024-02-23T10:24:17;51098.88;;;-146.02;75.45
57000;BME280;42891;50.006;21.964;2024-02-23T10:28:17;51118.91;;;-146.02;75.94
57000;BME280;42891;50.006;21.964;2024-02-23T10:32:23;51128.94;;;-146.02;75.72
57000;BME280;42891;50.006;21.964;2024-02-23T10:36:24;51112.91;;;-146.02;74.82
57000;BME280;42891;50.006;21.964;2024-02-23T10:40:29;51098.88;;;-146.02;75.16
57000;BME280;42891;50.006;21.964;2024-02-23T10:44:31;51114.91;;;-146.02;75.39
57000;BME280;42891;50.006;21.964;2024-02-23T10:48:31;51132.94;;;-146.02;75.36
57000;BME280;42891;50.006;21.964;2024-02-23T10:52:33;51161.00;;;-146.02;75.32
57000;BME280;42891;50.006;21.964;2024-02-23T10:56:35;51132.94;;;-146.02;75.47
57000;BME280;42891;50.006;21.964;2024-02-23T11:00:35;51116.91;;;-146.02;75.54
57000;BME280;42891;50.006;21.964;2024-02-23T11:04:37;51126.94;;;-146.02;75.07
57000;BME280;42891;50.006;21.964;2024-02-23T11:08:38;51112.91;;;-146.02;75.18
57000;BME280;42891;50.006;21.964;2024-02-23T11:12:38;51132.94;;;-146.02;75.09
57000;BME280;42891;50.006;21.964;2024-02-23T11:16:40;51138.94;;;-146.02;75.16
57000;BME280;42891;50.006;21.964;2024-02-23T11:20:41;51122.91;;;-146.02;75.37
57000;BME280;42891;50.006;21.964;2024-02-23T11:24:44;51132.94;;;-146.02;75.26
57000;BME280;42891;50.006;21.964;2024-02-23T11:28:49;51104.88;;;-146.02;74.66
57000;BME280;42891;50.006;21.964;2024-02-23T11:32:50;51134.94;;;-146.02;75.05
57000;BME280;42891;50.006;21.964;2024-02-23T11:36:54;51124.91;;;-146.02;74.50
57000;BME280;42891;50.006;21.964;2024-02-23T11:40:54;51128.94;;;-146.02;74.01
57000;BME280;42891;50.006;21.964;2024-02-23T11:44:55;51140.94;;;-146.02;74.53
57000;BME280;42891;50.006;21.964;2024-02-23T11:48:56;51120.91;;;-146.02;74.59
57000;BME280;42891;50.006;21.964;2024-02-23T11:52:57;51088.84;;;-146.02;74.39
57000;BME280;42891;50.006;21.964;2024-02-23T11:56:57;51126.94;;;-146.02;73.65
57000;BME280;42891;50.006;21.964;2024-02-23T12:00:57;51092.84;;;-146.02;74.51
57000;BME280;42891;50.006;21.964;2024-02-23T12:05:00;51124.91;;;-146.02;73.64
57000;BME280;42891;50.006;21.964;2024-02-23T12:09:01;51122.91;;;-146.02;73.61
57000;BME280;42891;50.006;21.964;2024-02-23T12:13:01;51126.94;;;-146.02;73.24
57000;BME280;42891;50.006;21.964;2024-02-23T12:17:03;51108.88;;;-146.02;72.83
57000;BME280;42891;50.006;21.964;2024-02-23T12:21:05;51092.84;;;-146.02;72.50
57000;BME280;42891;50.006;21.964;2024-02-23T12:25:06;51086.84;;;-146.02;72.35
57000;BME280;42891;50.006;21.964;2024-02-23T12:29:07;51116.91;;;-146.02;71.66
57000;BME280;42891;50.006;21.964;2024-02-23T12:33:07;51104.88;;;-146.02;71.66
57000;BME280;42891;50.006;21.964;2024-02-23T12:37:07;51138.94;;;-146.02;71.64
57000;BME280;42891;50.006;21.964;2024-02-23T12:41:08;51118.91;;;-146.02;71.71
57000;BME280;42891;50.006;21.964;2024-02-23T12:45:09;51116.91;;;-146.02;71.56
57000;BME280;42891;50.006;21.964;2024-02-23T12:49:09;51138.94;;;-146.02;71.65
57000;BME280;42891;50.006;21.964;2024-02-23T12:53:30;51146.97;;;-146.02;71.02
57000;BME280;42891;50.006;21.964;2024-02-23T12:57:33;51124.91;;;-146.02;71.28
57000;BME280;42891;50.006;21.964;2024-02-23T13:01:34;51161.00;;;-146.02;70.66
57000;BME280;42891;50.006;21.964;2024-02-23T13:05:37;51110.91;;;-146.02;70.98
57000;BME280;42891;50.006;21.964;2024-02-23T13:09:37;51140.94;;;-146.02;71.06
57000;BME280;42891;50.006;21.964;2024-02-23T13:13:37;51112.91;;;-146.02;70.86
57000;BME280;42891;50.006;21.964;2024-02-23T13:17:38;51084.84;;;-146.02;71.22
57000;BME280;42891;50.006;21.964;2024-02-23T13:21:38;51088.84;;;-146.02;71.47
57000;BME280;42891;50.006;21.964;2024-02-23T13:25:39;51098.88;;;-146.02;72.02
57000;BME280;42891;50.006;21.964;2024-02-23T13:29:40;51136.94;;;-146.02;73.10
57000;BME280;42891;50.006;21.964;2024-02-23T13:33:40;51118.91;;;-146.02;73.22
57000;BME280;42891;50.006;21.964;2024-02-23T13:37:43;51086.84;;;-146.02;73.51
57000;BME280;42891;50.006;21.964;2024-02-23T13:41:44;51128.94;;;-146.02;73.67
57000;BME280;42891;50.006;21.964;2024-02-23T13:45:49;51118.91;;;-146.02;74.56
57000;BME280;42891;50.006;21.964;2024-02-23T13:49:51;51118.91;;;-146.02;74.26
57000;BME280;42891;50.006;21.964;2024-02-23T13:53:51;51112.91;;;-146.02;74.96
57000;BME280;42891;50.006;21.964;2024-02-23T13:57:51;51140.94;;;-146.02;75.01
57000;BME280;42891;50.006;21.964;2024-02-23T14:01:51;51088.84;;;-146.02;74.68
57000;BME280;42891;50.006;21.964;2024-02-23T14:05:53;51130.94;;;-146.02;74.26
57000;BME280;42891;50.006;21.964;2024-02-23T14:09:53;51140.94;;;-146.02;74.32
57000;BME280;42891;50.006;21.964;2024-02-23T14:13:53;51126.94;;;-146.02;74.08
57000;BME280;42891;50.006;21.964;2024-02-23T14:17:54;51106.88;;;-146.02;74.05
57000;BME280;42891;50.006;21.964;2024-02-23T14:21:54;51128.94;;;-146.02;73.98
57000;BME280;42891;50.006;21.964;2024-02-23T14:25:55;51086.84;;;-146.02;73.29
57000;BME280;42891;50.006;21.964;2024-02-23T14:29:55;51130.94;;;-146.02;73.23
57000;BME280;42891;50.006;21.964;2024-02-23T14:33:56;51100.88;;;-146.02;73.08
57000;BME280;42891;50.006;21.964;2024-02-23T14:37:56;51076.81;;;-146.02;72.90
57000;BME280;42891;50.006;21.964;2024-02-23T14:41:57;51140.94;;;-146.02;72.55
57000;BME280;42891;50.006;21.964;2024-02-23T14:45:57;51152.97;;;-146.02;72.12
57000;BME280;42891;50.006;21.964;2024-02-23T14:49:58;51108.88;;;-146.02;72.23
57000;BME280;42891;50.006;21.964;2024-02-23T14:53:58;51100.88;;;-146.02;72.00
57000;BME280;42891;50.006;21.964;2024-02-23T14:57:58;51152.97;;;-146.02;72.25
57000;BME280;42891;50.006;21.964;2024-02-23T15:01:58;51110.91;;;-146.02;71.52
57000;BME280;42891;50.006;21.964;2024-02-23T15:05:59;51110.91;;;-146.02;72.18
57000;BME280;42891;50.006;21.964;2024-02-23T15:10:01;51128.94;;;-146.02;71.54
57000;BME280;42891;50.006;21.964;2024-02-23T15:14:05;51116.91;;;-146.02;71.91
57000;BME280;42891;50.006;21.964;2024-02-23T15:18:06;51136.94;;;-146.02;71.85
57000;BME280;42891;50.006;21.964;2024-02-23T15:22:07;51152.97;;;-146.02;71.51
57000;BME280;42891;50.006;21.964;2024-02-23T15:26:09;51088.84;;;-146.02;71.88
57000;BME280;42891;50.006;21.964;2024-02-23T15:30:09;51126.94;;;-146.02;71.74
57000;BME280;42891;50.006;21.964;2024-02-23T15:34:10;51132.94;;;-146.02;71.57
57000;BME280;42891;50.006;21.964;2024-02-23T15:38:11;51138.94;;;-146.02;71.69
57000;BME280;42891;50.006;21.964;2024-02-23T15:42:11;51104.88;;;-146.02;71.46
57000;BME280;42891;50.006;21.964;2024-02-23T15:46:13;51134.94;;;-146.02;71.63
57000;BME280;42891;50.006;21.964;2024-02-23T15:50:13;51150.97;;;-146.02;71.57
57000;BME280;42891;50.006;21.964;2024-02-23T15:54:14;51112.91;;;-146.02;71.95
57000;BME280;42891;50.006;21.964;2024-02-23T15:58:14;51112.91;;;-146.02;72.14
57000;BME280;42891;50.006;21.964;2024-02-23T16:02:16;51152.97;;;-146.02;72.50
57000;BME280;42891;50.006;21.964;2024-02-23T16:06:16;51110.91;;;-146.02;72.11
57000;BME280;42891;50.006;21.964;2024-02-23T16:10:17;51106.88;;;-146.02;71.83
57000;BME280;42891;50.006;21.964;2024-02-23T16:14:18;51134.94;;;-146.02;71.64
57000;BME280;42891;50.006;21.964;2024-02-23T16:18:18;51134.94;;;-146.02;71.91
57000;BME280;42891;50.006;21.964;2024-02-23T16:22:18;51112.91;;;-146.02;71.49
57000;BME280;42891;50.006;21.964;2024-02-23T16:26:19;51122.91;;;-146.02;71.46
57000;BME280;42891;50.006;21.964;2024-02-23T16:30:19;51132.94;;;-146.02;71.68
57000;BME280;42891;50.006;21.964;2024-02-23T16:34:19;51092.84;;;-146.02;72.21
57000;BME280;42891;50.006;21.964;2024-02-23T16:38:19;51116.91;;;-146.02;71.88
57000;BME280;42891;50.006;21.964;2024-02-23T16:42:21;51120.91;;;-146.02;72.08
57000;BME280;42891;50.006;21.964;2024-02-23T16:46:21;51114.91;;;-146.02;71.82
57000;BME280;42891;50.006;21.964;2024-02-23T16:50:21;51096.88;;;-146.02;71.74
57000;BME280;42891;50.006;21.964;2024-02-23T16:54:21;51124.91;;;-146.02;71.82
57000;BME280;42891;50.006;21.964;2024-02-23T16:58:22;51132.94;;;-146.02;71.75
57000;BME280;42891;50.006;21.964;2024-02-23T17:02:25;51132.94;;;-146.02;71.66
57000;BME280;42891;50.006;21.964;2024-02-23T17:06:25;51116.91;;;-146.02;71.98
57000;BME280;42891;50.006;21.964;2024-02-23T17:10:25;51114.91;;;-146.02;71.97
57000;BME280;42891;50.006;21.964;2024-02-23T17:14:25;51114.91;;;-146.02;71.75
57000;BME280;42891;50.006;21.964;2024-02-23T17:18:26;51142.97;;;-146.02;71.63
57000;BME280;42891;50.006;21.964;2024-02-23T17:22:27;51110.91;;;-146.02;71.54
57000;BME280;42891;50.006;21.964;2024-02-23T17:26:28;51132.94;;;-146.02;71.51
57000;BME280;42891;50.006;21.964;2024-02-23T17:30:28;51130.94;;;-146.02;71.13
57000;BME280;42891;50.006;21.964;2024-02-23T17:34:29;51112.91;;;-146.02;71.32
57000;BME280;42891;50.006;21.964;2024-02-23T17:38:29;51104.88;;;-146.02;71.13
57000;BME280;42891;50.006;21.964;2024-02-23T17:42:29;51148.97;;;-146.02;71.08
57000;BME280;42891;50.006;21.964;2024-02-23T17:46:30;51096.88;;;-146.02;70.89
57000;BME280;42891;50.006;21.964;2024-02-23T17:50:30;51116.91;;;-146.02;70.91
57000;BME280;42891;50.006;21.964;2024-02-23T17:54:31;51136.94;;;-146.02;70.90
57000;BME280;42891;50.006;21.964;2024-02-23T17:58:32;51130.94;;;-146.02;71.03
57000;BME280;42891;50.006;21.964;2024-02-23T18:02:35;51100.88;;;-146.02;70.92
57000;BME280;42891;50.006;21.964;2024-02-23T18:06:36;51144.97;;;-146.02;70.80
57000;BME280;42891;50.006;21.964;2024-02-23T18:10:36;51144.97;;;-146.02;70.63
57000;BME280;42891;50.006;21.964;2024-02-23T18:14:37;51120.91;;;-146.02;70.48
57000;BME280;42891;50.006;21.964;2024-02-23T18:18:38;51124.91;;;-146.02;70.45
57000;BME280;42891;50.006;21.964;2024-02-23T18:22:39;51110.91;;;-146.02;71.03
57000;BME280;42891;50.006;21.964;2024-02-23T18:26:39;51150.97;;;-146.02;70.78
57000;BME280;42891;50.006;21.964;2024-02-23T18:30:39;51140.94;;;-146.02;71.17
57000;BME280;42891;50.006;21.964;2024-02-23T18:34:40;51122.91;;;-146.02;71.57
57000;BME280;42891;50.006;21.964;2024-02-23T18:38:41;51136.94;;;-146.02;71.38
57000;BME280;42891;50.006;21.964;2024-02-23T18:42:41;51142.97;;;-146.02;71.84
57000;BME280;42891;50.006;21.964;2024-02-23T18:46:42;51128.94;;;-146.02;71.88
57000;BME280;42891;50.006;21.964;2024-02-23T18:50:42;51106.88;;;-146.02;71.82
57000;BME280;42891;50.006;21.964;2024-02-23T18:54:42;51118.91;;;-146.02;71.62
57000;BME280;42891;50.006;21.964;2024-02-23T18:58:43;51118.91;;;-146.02;71.52
57000;BME280;42891;50.006;21.964;2024-02-23T19:02:43;51128.94;;;-146.02;71.30
57000;BME280;42891;50.006;21.964;2024-02-23T19:06:44;51112.91;;;-146.02;71.60
57000;BME280;42891;50.006;21.964;2024-02-23T19:10:44;51144.97;;;-146.02;71.66
57000;BME280;42891;50.006;21.964;2024-02-23T19:14:44;51124.91;;;-146.02;71.24
57000;BME280;42891;50.006;21.964;2024-02-23T19:18:45;51112.91;;;-146.02;71.22
57000;BME280;42891;50.006;21.964;2024-02-23T19:22:45;51120.91;;;-146.02;70.79
57000;BME280;42891;50.006;21.964;2024-02-23T19:26:46;51104.88;;;-146.02;70.51
57000;BME280;42891;50.006;21.964;2024-02-23T19:30:46;51122.91;;;-146.02;70.48
57000;BME280;42891;50.006;21.964;2024-02-23T19:34:47;51098.88;;;-146.02;70.15
57000;BME280;42891;50.006;21.964;2024-02-23T19:38:47;51146.97;;;-146.02;70.79
57000;BME280;42891;50.006;21.964;2024-02-23T19:42:50;51126.94;;;-146.02;70.36
57000;BME280;42891;50.006;21.964;2024-02-23T19:46:51;51106.88;;;-146.02;70.53
57000;BME280;42891;50.006;21.964;2024-02-23T19:50:51;51124.91;;;-146.02;70.30
57000;BME280;42891;50.006;21.964;2024-02-23T19:54:51;51126.94;;;-146.02;70.75
57000;BME280;42891;50.006;21.964;2024-02-23T19:58:51;51136.94;;;-146.02;70.31
57000;BME280;42891;50.006;21.964;2024-02-23T20:02:52;51140.94;;;-146.02;70.40
57000;BME280;42891;50.006;21.964;2024-02-23T20:06:52;51092.84;;;-146.02;69.99
57000;BME280;42891;50.006;21.964;2024-02-23T20:10:55;51110.91;;;-146.02;69.90
57000;BME280;42891;50.006;21.964;2024-02-23T20:14:55;51138.94;;;-146.02;69.44
57000;BME280;42891;50.006;21.964;2024-02-23T20:18:56;51128.94;;;-146.02;69.22
57000;BME280;42891;50.006;21.964;2024-02-23T20:22:56;51144.97;;;-146.02;69.10
57000;BME280;42891;50.006;21.964;2024-02-23T20:26:57;51132.94;;;-146.02;69.43